Time;durP1;ratioP1;P1;durP2;ratioP2;P2;SDS_P1;SDS_P2;PMS_P1;PMS_P2;Temp;Humidity;BMP_temperature;BMP_pressure;BME280_temperature;BME280_humidity;BME280_pressure;Samples;Min_cycle;Max_cycle;Signal;HPM_P1;HPM_P2
2022/07/23 00:02:07;;;;;;;12.13;4.55;;;;;;;18.74;71.80;99418.88;5097891;28;20050;-45
2022/07/23 00:04:33;;;;;;;11.60;4.68;;;;;;;18.73;71.96;99425.09;5113041;28;20112;-44
2022/07/23 00:06:59;;;;;;;7.80;4.47;;;;;;;18.72;71.97;99433.09;5101819;28;20055;-44
2022/07/23 00:09:26;;;;;;;6.57;4.13;;;;;;;18.52;72.20;99400.28;5093708;28;20060;-43
2022/07/23 00:11:51;;;;;;;9.20;4.32;;;;;;;18.65;72.33;99429.22;5091622;28;20669;-44
2022/07/23 00:14:18;;;;;;;6.82;4.20;;;;;;;18.63;72.46;99431.13;5091045;28;20036;-42
2022/07/23 00:16:43;;;;;;;8.32;4.75;;;;;;;18.59;72.84;99431.34;5092939;28;20052;-42
2022/07/23 00:19:09;;;;;;;15.07;4.82;;;;;;;18.56;73.32;99428.94;5092660;28;20393;-43
2022/07/23 00:21:35;;;;;;;13.60;4.82;;;;;;;18.54;73.54;99428.19;5091127;28;20044;-43
2022/07/23 00:24:01;;;;;;;13.25;4.68;;;;;;;18.53;73.88;99433.53;5108943;28;20031;-42
2022/07/23 00:26:27;;;;;;;10.38;4.97;;;;;;;18.43;73.96;99428.06;5092577;28;20401;-46
2022/07/23 00:28:53;;;;;;;12.77;5.82;;;;;;;18.48;74.34;99438.28;5090416;28;20039;-45
2022/07/23 00:31:18;;;;;;;14.30;5.88;;;;;;;18.45;74.37;99435.88;5091209;28;20119;-43
2022/07/23 00:33:45;;;;;;;9.88;5.10;;;;;;;18.40;74.23;99425.69;5092263;28;20067;-45
2022/07/23 00:36:11;;;;;;;16.65;5.70;;;;;;;18.40;74.54;99438.84;5105383;28;20036;-44
2022/07/23 00:38:37;;;;;;;9.48;5.72;;;;;;;18.27;74.84;99419.56;5108749;28;20538;-46
2022/07/23 00:41:03;;;;;;;12.27;5.43;;;;;;;18.35;75.17;99434.84;5091634;28;20044;-47
2022/07/23 00:43:29;;;;;;;14.32;5.95;;;;;;;18.32;75.83;99437.69;5092264;28;20040;-44
2022/07/23 00:45:55;;;;;;;10.50;6.03;;;;;;;18.28;76.11;99436.22;5090833;28;20039;-46
2022/07/23 00:48:21;;;;;;;12.23;6.30;;;;;;;18.12;76.30;99410.13;5092104;28;20043;-45
2022/07/23 00:50:47;;;;;;;15.75;6.68;;;;;;;18.23;76.64;99430.44;5057514;28;20043;-44
2022/07/23 00:53:13;;;;;;;14.10;6.60;;;;;;;18.21;76.64;99444.53;5090977;28;20044;-44
2022/07/23 00:55:39;;;;;;;15.13;7.40;;;;;;;18.20;76.82;99452.56;5073349;28;20036;-43
2022/07/23 00:58:06;;;;;;;13.18;6.85;;;;;;;18.18;76.86;99447.38;5090278;28;20075;-44
2022/07/23 01:00:31;;;;;;;12.48;7.57;;;;;;;17.99;77.02;99418.03;5073424;28;20047;-44
2022/07/23 01:02:57;;;;;;;10.55;6.53;;;;;;;18.15;77.36;99452.03;5090255;28;20039;-45
2022/07/23 01:05:25;;;;;;;19.60;7.18;;;;;;;18.11;77.65;99446.09;5091799;28;20098;-43
2022/07/23 01:07:51;;;;;;;16.75;6.22;;;;;;;18.11;77.91;99451.38;5091644;28;20039;-43
2022/07/23 01:10:33;;;;;;;16.42;7.13;;;;;;;18.07;78.27;99442.00;5090131;28;20130;-44
2022/07/23 01:12:59;;;;;;;15.38;6.55;;;;;;;18.08;78.30;99446.34;5091262;28;20031;-44
2022/07/23 01:15:26;;;;;;;23.70;7.93;;;;;;;18.08;78.21;99450.75;5090515;28;20464;-43
2022/07/23 01:17:53;;;;;;;18.90;6.95;;;;;;;18.08;78.54;99453.38;5072933;28;20089;-44
2022/07/23 01:20:19;;;;;;;18.95;6.18;;;;;;;18.08;78.33;99445.50;5090493;28;20043;-43
2022/07/23 01:22:45;;;;;;;16.23;6.72;;;;;;;18.08;78.52;99445.50;5101897;28;20040;-43
2022/07/23 01:25:11;;;;;;;13.50;7.05;;;;;;;17.89;78.77;99418.78;5110329;28;20050;-45
2022/07/23 01:27:40;;;;;;;15.82;6.40;;;;;;;17.93;78.99;99434.25;5096355;28;20044;-43
2022/07/23 01:30:07;;;;;;;15.82;6.25;;;;;;;18.01;79.26;99445.06;5086735;28;20900;-43
2022/07/23 01:32:33;;;;;;;16.50;6.68;;;;;;;17.99;79.41;99449.59;5084759;28;20047;-45
2022/07/23 01:34:59;;;;;;;21.27;7.15;;;;;;;17.99;79.71;99444.34;5090005;28;20044;-48
2022/07/23 01:37:25;;;;;;;19.52;6.85;;;;;;;17.86;79.38;99414.56;5089716;28;20066;-43
2022/07/23 01:39:52;;;;;;;20.90;7.40;;;;;;;18.04;79.02;99444.88;5089629;28;20079;-44
2022/07/23 01:42:18;;;;;;;16.23;6.72;;;;;;;18.06;79.12;99439.47;5090060;28;20108;-42
2022/07/23 01:44:44;;;;;;;20.08;7.15;;;;;;;18.07;79.15;99443.81;5099050;28;20070;-43
2022/07/23 01:47:16;;;;;;;17.10;7.45;;;;;;;18.07;79.29;99438.53;5109132;28;20047;-47
2022/07/23 01:49:42;;;;;;;16.23;6.57;;;;;;;17.88;79.28;99412.66;5053294;28;20047;-44
2022/07/23 01:52:43;;;;;;;20.48;7.63;;;;;;;18.02;79.46;99433.59;5079341;28;20131;-43
2022/07/23 01:55:09;;;;;;;13.82;6.93;;;;;;;18.01;79.79;99437.16;5085227;28;20143;-45
2022/07/23 01:57:38;;;;;;;21.40;7.20;;;;;;;18.00;80.39;99443.41;5089610;28;20476;-46
2022/07/23 02:00:05;;;;;;;15.45;6.43;;;;;;;18.04;80.25;99450.13;5089180;28;20040;-44
2022/07/23 02:02:39;;;;;;;20.48;6.88;;;;;;;18.04;80.33;99446.66;5097678;28;20047;-47
2022/07/23 02:05:05;;;;;;;17.17;7.15;;;;;;;18.04;80.62;99444.88;5089551;28;20047;-44
2022/07/23 02:07:31;;;;;;;21.20;6.68;;;;;;;18.07;80.64;99441.16;5070772;28;20500;-43
2022/07/23 02:09:59;;;;;;;19.75;6.90;;;;;;;18.05;80.79;99436.03;5081708;28;20523;-48
2022/07/23 02:12:25;;;;;;;17.33;6.80;;;;;;;18.00;80.68;99418.88;5090714;28;20092;-44
2022/07/23 02:14:51;;;;;;;17.92;6.13;;;;;;;18.12;80.91;99439.06;5072384;28;20079;-44
2022/07/23 02:17:17;;;;;;;14.00;6.38;;;;;;;18.13;80.80;99438.97;5089356;28;20063;-43
2022/07/23 02:19:42;;;;;;;14.57;5.78;;;;;;;18.15;80.95;99444.97;5088867;28;20040;-44
2022/07/23 02:22:08;;;;;;;14.90;6.05;;;;;;;18.15;80.87;99439.72;5093461;28;20149;-45
2022/07/23 02:24:34;;;;;;;15.63;6.35;;;;;;;18.20;81.04;99453.41;5090994;28;20039;-44
2022/07/23 02:27:00;;;;;;;14.93;6.80;;;;;;;18.21;81.15;99441.06;5089203;28;20040;-44
2022/07/23 02:29:26;;;;;;;12.63;5.97;;;;;;;18.24;81.10;99445.28;5071034;28;20044;-43
2022/07/23 02:31:53;;;;;;;14.57;5.97;;;;;;;18.24;81.18;99440.00;5083057;28;20150;-44
2022/07/23 02:34:19;;;;;;;14.65;6.07;;;;;;;18.26;81.34;99438.13;5099269;28;20111;-46
2022/07/23 02:36:45;;;;;;;16.08;6.20;;;;;;;18.27;81.30;99438.00;5089279;28;20044;-44
2022/07/23 02:39:14;;;;;;;12.45;6.38;;;;;;;18.27;81.26;99434.53;5100195;28;20474;-44
2022/07/23 02:41:40;;;;;;;13.90;5.57;;;;;;;18.33;81.28;99442.00;5090441;28;20499;-47
2022/07/23 02:44:05;;;;;;;13.57;6.43;;;;;;;18.34;81.22;99439.25;5088650;28;20154;-45
2022/07/23 02:46:32;;;;;;;11.52;5.50;;;;;;;18.38;81.26;99445.97;5072195;28;20554;-44
2022/07/23 02:48:58;;;;;;;15.15;5.90;;;;;;;18.42;81.35;99434.28;5107526;28;20039;-43
2022/07/23 02:51:24;;;;;;;14.70;5.70;;;;;;;18.45;81.21;99444.63;5094926;28;20040;-44
2022/07/23 02:53:55;;;;;;;10.85;5.38;;;;;;;18.48;81.05;99444.38;5093094;28;20127;-43
2022/07/23 02:56:21;;;;;;;15.05;5.70;;;;;;;18.48;81.32;99439.13;5090260;28;20142;-44
2022/07/23 02:58:47;;;;;;;10.95;6.32;;;;;;;18.55;81.17;99442.19;5089042;28;20040;-43
2022/07/23 03:01:13;;;;;;;10.50;5.45;;;;;;;18.58;80.94;99444.59;5093502;28;20572;-43
2022/07/23 03:03:40;;;;;;;9.27;5.28;;;;;;;18.63;80.92;99444.31;5092547;28;20043;-44
2022/07/23 03:06:31;;;;;;;11.95;5.75;;;;;;;18.67;80.48;99446.59;5092419;28;20071;-43
2022/07/23 03:08:57;;;;;;;8.75;5.32;;;;;;;18.70;80.50;99443.75;5092608;28;20064;-45
2022/07/23 03:11:23;;;;;;;8.88;5.00;;;;;;;18.76;80.51;99456.47;5092672;28;20036;-43
2022/07/23 03:13:49;;;;;;;10.15;5.63;;;;;;;18.81;80.35;99453.50;5092658;28;20040;-43
2022/07/23 03:16:15;;;;;;;11.43;5.90;;;;;;;18.85;80.31;99454.97;5093561;28;20516;-44
2022/07/23 03:18:41;;;;;;;12.30;5.35;;;;;;;18.88;80.17;99455.63;5093911;28;20047;-44
2022/07/23 03:21:08;;;;;;;8.73;5.15;;;;;;;18.92;80.13;99464.13;5092660;28;20046;-44
2022/07/23 03:23:34;;;;;;;8.30;5.28;;;;;;;18.96;80.14;99460.31;5100979;28;20043;-44
2022/07/23 03:26:00;;;;;;;10.77;5.63;;;;;;;18.94;79.90;99449.91;5112924;28;20069;-44
2022/07/23 03:28:27;;;;;;;9.35;5.60;;;;;;;19.05;79.81;99457.84;5108744;28;20566;-43
2022/07/23 03:30:53;;;;;;;8.57;5.78;;;;;;;19.09;79.50;99455.84;5106637;28;20044;-43
2022/07/23 03:33:20;;;;;;;10.60;6.00;;;;;;;19.15;79.35;99459.84;5075596;28;20040;-44
2022/07/23 03:35:47;;;;;;;11.07;5.20;;;;;;;19.20;79.01;99468.25;5075195;28;20473;-45
2022/07/23 03:38:23;;;;;;;7.40;5.03;;;;;;;19.25;78.75;99464.31;5066183;28;20047;-45
2022/07/23 03:40:50;;;;;;;8.55;5.35;;;;;;;19.16;78.61;99441.25;5092012;28;20071;-43
2022/07/23 03:43:16;;;;;;;9.05;5.40;;;;;;;19.25;78.22;99437.97;5074793;28;20047;-44
2022/07/23 03:45:42;;;;;;;9.52;5.50;;;;;;;19.44;78.17;99459.41;5093349;28;20047;-43
2022/07/23 03:48:08;;;;;;;9.00;4.82;;;;;;;19.52;77.60;99463.25;5091425;28;20061;-44
2022/07/23 03:50:34;;;;;;;9.32;5.53;;;;;;;19.58;77.18;99458.34;5074877;28;20461;-43
2022/07/23 03:53:00;;;;;;;9.23;5.20;;;;;;;19.51;76.86;99429.94;5094568;28;20043;-44
2022/07/23 03:55:26;;;;;;;7.60;5.55;;;;;;;19.56;76.48;99422.53;5090822;28;20044;-44
2022/07/23 03:57:52;;;;;;;8.27;5.20;;;;;;;19.77;76.15;99453.41;5091945;28;20096;-47
2022/07/23 04:00:18;;;;;;;9.48;5.47;;;;;;;19.86;75.89;99459.75;5058138;28;20040;-42
2022/07/23 04:02:45;;;;;;;10.63;5.20;;;;;;;19.93;75.55;99465.41;5091125;28;20043;-43
2022/07/23 04:05:12;;;;;;;10.23;5.38;;;;;;;19.98;75.33;99464.13;5091748;28;20138;-42
2022/07/23 04:07:40;;;;;;;13.10;5.30;;;;;;;20.08;74.82;99464.25;5093245;28;20036;-44
2022/07/23 04:10:07;;;;;;;8.93;5.72;;;;;;;19.93;74.49;99434.59;5100695;28;20056;-43
2022/07/23 04:12:33;;;;;;;11.90;6.13;;;;;;;19.94;74.15;99422.25;5090587;28;20036;-43
2022/07/23 04:15:00;;;;;;;10.63;5.38;;;;;;;20.15;73.69;99447.78;5074250;28;20047;-43
2022/07/23 04:17:26;;;;;;;13.75;7.60;;;;;;;20.37;73.35;99469.94;5091082;28;20043;-43
2022/07/23 04:19:52;;;;;;;11.75;6.82;;;;;;;20.26;72.89;99444.31;5113288;27;20519;-43
2022/07/23 04:22:22;;;;;;;16.92;8.02;;;;;;;20.51;72.45;99472.34;5090880;28;20047;-43
2022/07/23 04:24:49;;;;;;;10.02;5.07;;;;;;;20.57;72.21;99462.13;5092723;28;20047;-46
2022/07/23 04:27:15;;;;;;;15.57;6.32;;;;;;;20.65;71.62;99472.09;5074602;28;20075;-42
2022/07/23 04:29:41;;;;;;;13.38;5.32;;;;;;;20.73;71.28;99474.94;5092382;28;20044;-45
2022/07/23 04:32:07;;;;;;;9.48;6.60;;;;;;;20.82;71.00;99468.13;5112723;27;20061;-43
2022/07/23 04:34:33;;;;;;;10.02;4.85;;;;;;;20.88;70.58;99465.84;5091526;28;20075;-42
2022/07/23 04:36:59;;;;;;;11.05;5.72;;;;;;;20.95;70.22;99467.00;5074013;28;20576;-41
2022/07/23 04:39:26;;;;;;;11.68;5.35;;;;;;;20.73;69.96;99427.41;5094261;28;20115;-42
2022/07/23 04:41:54;;;;;;;11.45;5.70;;;;;;;21.08;69.62;99469.50;5090840;28;20086;-43
2022/07/23 04:44:20;;;;;;;16.63;5.20;;;;;;;21.17;68.99;99468.78;5090900;28;20507;-46
2022/07/23 04:46:47;;;;;;;12.20;5.47;;;;;;;21.25;68.55;99470.81;5074324;28;20040;-46
2022/07/23 04:49:13;;;;;;;11.38;5.60;;;;;;;21.35;67.79;99467.28;5059784;28;20408;-47
2022/07/23 04:51:39;;;;;;;9.07;5.00;;;;;;;21.41;67.57;99464.13;5087373;28;20570;-45
2022/07/23 04:54:05;;;;;;;11.18;5.35;;;;;;;21.49;67.23;99463.50;5113159;27;20134;-45
2022/07/23 04:56:31;;;;;;;8.77;5.57;;;;;;;21.58;66.88;99464.53;5111224;28;20088;-43
2022/07/23 04:58:57;;;;;;;10.88;5.50;;;;;;;21.67;66.71;99466.44;5099452;28;20733;-43
2022/07/23 05:01:22;;;;;;;11.50;5.35;;;;;;;21.73;66.39;99461.44;5091271;28;20121;-44
2022/07/23 05:03:49;;;;;;;9.25;5.68;;;;;;;21.84;66.09;99465.84;5090004;28;20066;-45
2022/07/23 05:06:15;;;;;;;15.57;5.18;;;;;;;21.92;65.72;99456.31;5073542;28;20076;-43
2022/07/23 05:08:41;;;;;;;10.75;5.68;;;;;;;22.01;65.28;99461.81;5099858;28;20136;-44
2022/07/23 05:11:09;;;;;;;11.23;5.85;;;;;;;22.09;65.03;99449.56;5110972;28;20036;-43
2022/07/23 05:13:35;;;;;;;11.25;5.53;;;;;;;22.17;64.69;99451.59;5099477;28;20155;-44
2022/07/23 05:16:01;;;;;;;12.90;6.65;;;;;;;22.21;64.27;99448.53;5087773;28;20093;-42
2022/07/23 05:18:27;;;;;;;9.52;4.88;;;;;;;22.32;63.77;99451.09;5096376;28;20051;-45
2022/07/23 05:20:53;;;;;;;13.98;5.65;;;;;;;22.42;63.66;99447.66;5110621;28;20043;-43
2022/07/23 05:23:21;;;;;;;10.45;5.50;;;;;;;22.26;62.95;99405.75;5102750;28;20051;-44
2022/07/23 05:25:49;;;;;;;13.57;6.93;;;;;;;22.67;62.55;99458.63;5090717;28;20032;-42
2022/07/23 05:28:16;;;;;;;10.93;5.10;;;;;;;22.78;62.31;99460.34;5071875;28;20044;-48
2022/07/23 05:30:42;;;;;;;12.65;7.50;;;;;;;22.75;62.24;99439.44;5073398;28;20036;-44
2022/07/23 05:33:12;;;;;;;8.48;5.47;;;;;;;22.97;61.96;99447.16;5090203;28;20521;-44
2022/07/23 05:35:38;;;;;;;7.50;4.95;;;;;;;23.00;61.40;99425.66;5073022;28;20423;-43
2022/07/23 05:38:23;;;;;;;12.32;5.53;;;;;;;23.22;61.13;99454.59;5090863;28;20070;-42
2022/07/23 05:40:49;;;;;;;18.20;7.10;;;;;;;23.34;60.87;99457.97;5089904;28;20050;-43
2022/07/23 05:43:15;;;;;;;10.65;5.30;;;;;;;23.40;60.56;99445.91;5074648;28;20044;-43
2022/07/23 05:45:41;;;;;;;7.03;4.82;;;;;;;23.52;60.12;99439.53;5101159;28;20031;-42
2022/07/23 05:48:07;;;;;;;11.10;6.43;;;;;;;23.67;59.38;99446.09;5089807;28;20126;-43
2022/07/23 05:50:46;;;;;;;12.03;5.03;;;;;;;23.79;58.71;99436.16;5089422;28;20063;-46
2022/07/23 05:53:21;;;;;;;10.50;4.60;;;;;;;23.91;58.32;99443.00;5089700;28;20046;-43
2022/07/23 05:56:09;;;;;;;10.53;5.00;;;;;;;24.03;57.74;99450.63;5075022;28;20420;-45
2022/07/23 05:58:36;;;;;;;7.63;5.38;;;;;;;23.98;57.25;99418.34;5101307;28;20028;-43
2022/07/23 06:01:02;;;;;;;8.65;4.43;;;;;;;24.23;56.91;99450.63;5074377;28;20461;-43
2022/07/23 06:03:33;;;;;;;7.20;4.97;;;;;;;24.32;56.41;99439.13;5093990;28;20152;-42
2022/07/23 06:05:59;;;;;;;5.78;4.47;;;;;;;24.46;56.08;99447.44;5072293;28;20126;-44
2022/07/23 06:08:26;;;;;;;11.95;5.80;;;;;;;24.56;55.48;99443.91;5089996;28;20469;-42
2022/07/23 06:10:52;;;;;;;10.10;5.22;;;;;;;24.67;54.93;99443.72;5085001;28;20661;-43
2022/07/23 06:13:18;;;;;;;5.95;5.13;;;;;;;24.55;54.84;99405.84;5077467;28;20043;-45
2022/07/23 06:15:44;;;;;;;9.48;5.32;;;;;;;24.93;54.59;99443.88;5109706;28;20043;-46
2022/07/23 06:18:10;;;;;;;7.68;5.35;;;;;;;25.00;54.40;99432.50;5083980;28;20046;-45
2022/07/23 06:20:38;;;;;;;9.32;5.22;;;;;;;25.16;54.21;99438.00;5089365;28;20517;-42
2022/07/23 06:23:04;;;;;;;8.48;5.50;;;;;;;25.33;53.56;99435.47;5092653;28;20036;-43
2022/07/23 06:25:30;;;;;;;9.30;4.93;;;;;;;25.47;52.70;99430.44;5073009;28;20035;-46
2022/07/23 06:27:56;;;;;;;6.97;5.45;;;;;;;25.71;52.12;99428.00;5084808;28;20062;-44
2022/07/23 06:30:22;;;;;;;8.27;5.03;;;;;;;25.97;52.00;99428.00;5071237;28;20576;-43
2022/07/23 06:32:48;;;;;;;8.98;5.20;;;;;;;26.34;51.21;99432.25;5084545;28;20040;-43
2022/07/23 06:35:16;;;;;;;9.13;5.07;;;;;;;26.67;50.22;99414.56;5069901;28;20431;-43
2022/07/23 06:37:42;;;;;;;9.82;5.13;;;;;;;27.27;49.33;99433.91;5070166;28;20040;-44
2022/07/23 06:40:10;;;;;;;10.18;5.47;;;;;;;27.80;48.70;99418.25;5055247;28;20126;-44
2022/07/23 06:42:39;;;;;;;8.70;4.80;;;;;;;28.66;46.82;99433.59;5088880;28;20090;-42
2022/07/23 06:45:06;;;;;;;7.93;4.97;;;;;;;29.53;44.96;99419.00;5088410;28;20130;-43
2022/07/23 06:47:35;;;;;;;6.10;4.95;;;;;;;30.50;43.18;99427.97;5084848;28;20101;-45
2022/07/23 06:50:01;;;;;;;10.07;5.47;;;;;;;31.28;41.42;99428.09;5080943;28;20048;-57
2022/07/23 06:52:29;;;;;;;10.68;5.10;;;;;;;32.14;39.81;99432.34;5088354;28;20093;-62
2022/07/23 06:54:54;;;;;;;9.45;5.25;;;;;;;33.05;38.05;99433.03;5086757;28;20086;-57
2022/07/23 06:57:20;;;;;;;6.10;4.95;;;;;;;34.00;36.27;99436.28;5084956;28;20036;-52
2022/07/23 06:59:46;;;;;;;7.93;5.55;;;;;;;34.85;34.90;99440.66;5087904;28;20047;-61
2022/07/23 07:02:12;;;;;;;6.53;5.82;;;;;;;35.70;33.79;99435.78;5088305;28;20782;-59
2022/07/23 07:04:38;;;;;;;9.38;4.93;;;;;;;36.42;32.58;99435.09;5088526;28;20094;-59
2022/07/23 07:07:04;;;;;;;8.75;5.60;;;;;;;37.10;30.75;99434.09;5088095;28;20118;-51
2022/07/23 07:09:30;;;;;;;10.32;5.70;;;;;;;37.83;29.61;99436.53;5083618;28;20060;-59
2022/07/23 07:11:56;;;;;;;7.32;5.05;;;;;;;38.34;28.40;99439.34;5088176;28;20040;-57
2022/07/23 07:14:22;;;;;;;6.72;5.63;;;;;;;39.03;27.08;99431.31;5088366;28;20534;-51
2022/07/23 07:16:48;;;;;;;6.38;5.35;;;;;;;39.77;26.05;99435.66;5086524;28;20047;-57
2022/07/23 07:19:14;;;;;;;9.43;5.68;;;;;;;40.22;25.60;99432.78;5089664;28;20075;-42
2022/07/23 07:21:39;;;;;;;7.82;6.40;;;;;;;40.90;24.99;99437.78;5079993;28;20048;-59
2022/07/23 07:24:06;;;;;;;10.15;6.35;;;;;;;41.47;24.18;99447.38;5078818;28;20504;-60
2022/07/23 07:26:32;;;;;;;13.25;6.30;;;;;;;41.95;23.89;99425.41;5088324;28;20032;-54
2022/07/23 07:28:58;;;;;;;6.85;6.00;;;;;;;42.72;22.88;99437.59;5099572;28;20044;-59
2022/07/23 07:31:25;;;;;;;7.85;6.18;;;;;;;43.23;21.82;99428.47;5088268;28;20062;-58
2022/07/23 07:33:51;;;;;;;6.47;5.40;;;;;;;43.83;21.70;99440.53;5089268;28;20044;-50
2022/07/23 07:36:17;;;;;;;8.00;5.90;;;;;;;44.11;20.64;99439.97;5089910;28;20051;-47
2022/07/23 07:38:43;;;;;;;7.32;6.03;;;;;;;44.46;19.84;99436.31;5088540;28;20048;-59
2022/07/23 07:41:09;;;;;;;6.07;5.00;;;;;;;42.85;21.33;99432.44;5089247;28;20094;-61
2022/07/23 07:43:36;;;;;;;7.18;5.93;;;;;;;40.36;22.84;99427.78;5085007;28;20079;-60
2022/07/23 07:46:03;;;;;;;6.75;5.30;;;;;;;38.09;24.93;99389.91;5087195;28;20785;-49
2022/07/23 07:48:29;;;;;;;5.50;4.93;;;;;;;37.53;26.36;99423.00;5092997;28;20044;-58
2022/07/23 07:50:55;;;;;;;9.77;6.05;;;;;;;38.49;25.64;99425.28;5092181;28;20488;-59
2022/07/23 07:53:21;;;;;;;6.88;5.88;;;;;;;40.40;23.71;99435.25;5091271;28;20555;-59
2022/07/23 07:55:47;;;;;;;5.30;4.78;;;;;;;41.61;22.74;99432.25;5081013;28;20044;-58
2022/07/23 07:58:13;;;;;;;6.03;5.50;;;;;;;42.43;21.50;99443.47;5071114;28;20067;-58
2022/07/23 08:00:38;;;;;;;7.05;6.28;;;;;;;43.28;20.60;99436.69;5080195;28;20036;-58
2022/07/23 08:03:04;;;;;;;7.45;5.85;;;;;;;44.06;20.16;99439.97;5079911;28;20531;-59
2022/07/23 08:05:31;;;;;;;7.07;6.35;;;;;;;43.88;20.28;99441.38;5091664;28;20036;-58
2022/07/23 08:07:58;;;;;;;8.75;5.80;;;;;;;44.07;20.08;99432.56;5090726;28;20046;-59
2022/07/23 08:10:25;;;;;;;5.45;5.03;;;;;;;43.50;20.26;99425.47;5090935;28;20090;-59
2022/07/23 08:12:53;;;;;;;6.93;6.32;;;;;;;44.02;19.67;99422.41;5086800;28;20040;-58
2022/07/23 08:15:21;;;;;;;6.22;5.53;;;;;;;43.65;19.64;99403.56;5090588;28;20575;-58
2022/07/23 08:17:48;;;;;;;6.20;5.60;;;;;;;43.40;20.14;99431.75;5092072;28;20044;-58
2022/07/23 08:20:16;;;;;;;6.90;6.30;;;;;;;42.92;20.47;99416.59;5091838;28;20036;-58
2022/07/23 08:22:50;;;;;;;6.80;4.97;;;;;;;41.63;22.19;99419.13;5091214;28;20051;-58
2022/07/23 08:25:22;;;;;;;5.60;4.55;;;;;;;40.36;23.18;99417.72;5090941;28;20089;-59
2022/07/23 08:27:49;;;;;;;8.18;5.40;;;;;;;38.97;23.61;99405.91;5091453;28;20039;-58
2022/07/23 08:30:16;;;;;;;6.82;5.10;;;;;;;37.96;25.34;99411.84;5091650;28;20511;-57
2022/07/23 08:32:50;;;;;;;6.35;5.68;;;;;;;37.62;25.50;99406.19;5089820;28;20039;-57
2022/07/23 08:35:16;;;;;;;7.88;5.63;;;;;;;38.61;24.56;99411.69;5090403;28;20044;-56
2022/07/23 08:37:42;;;;;;;6.97;6.00;;;;;;;38.41;24.76;99402.03;5091807;28;20478;-58
2022/07/23 08:40:09;;;;;;;7.38;6.68;;;;;;;38.61;24.21;99409.78;5091332;28;20031;-58
2022/07/23 08:42:36;;;;;;;10.27;7.28;;;;;;;40.51;22.52;99415.19;5088544;28;20044;-58
2022/07/23 08:45:03;;;;;;;8.50;6.90;;;;;;;42.01;21.40;99404.41;5091441;28;20040;-59
2022/07/23 08:47:29;;;;;;;;;;;;;;;43.29;20.60;99408.19;5090862;28;20050;-57
2022/07/23 08:49:56;;;;;;;7.28;6.53;;;;;;;44.22;19.43;99413.34;5089849;28;19916;-57
2022/07/23 08:52:22;;;;;;;;;;;;;;;44.84;19.46;99412.84;5089206;28;20521;-57
2022/07/23 08:54:48;;;;;;;8.95;7.40;;;;;;;45.37;18.57;99380.91;5091430;28;19916;-58
2022/07/23 08:57:14;;;;;;;7.50;6.80;;;;;;;45.88;17.60;99411.53;5089534;28;20040;-57
2022/07/23 08:59:41;;;;;;;8.27;7.50;;;;;;;45.87;17.56;99404.38;5090876;28;20519;-58
2022/07/23 09:02:06;;;;;;;6.25;5.55;;;;;;;46.08;17.78;99409.66;5082913;28;20221;-57
2022/07/23 09:04:32;;;;;;;7.25;6.75;;;;;;;46.18;17.67;99409.56;5091177;28;20571;-58
2022/07/23 09:06:59;;;;;;;7.45;6.35;;;;;;;45.77;17.71;99398.13;5091995;28;20065;-59
2022/07/23 09:09:29;;;;;;;7.15;6.53;;;;;;;43.02;18.98;99392.00;5088430;28;20075;-58
2022/07/23 09:12:07;;;;;;;7.22;6.18;;;;;;;40.82;21.11;99383.69;5088950;28;20566;-58
2022/07/23 09:14:37;;;;;;;;;;;;;;;40.29;21.81;99384.41;5083799;28;20055;-58
2022/07/23 09:17:14;;;;;;;6.07;5.47;;;;;;;41.12;21.65;99347.72;5089916;28;19930;-58
2022/07/23 09:19:41;;;;;;;7.22;6.53;;;;;;;42.97;20.39;99388.44;5085739;28;20043;-57
2022/07/23 09:22:21;;;;;;;10.25;5.93;;;;;;;44.81;18.56;99390.59;5089371;28;20393;-58
2022/07/23 09:25:17;;;;;;;6.80;5.45;;;;;;;44.44;18.73;99383.66;5089426;28;20123;-57
2022/07/23 09:27:47;;;;;;;7.50;6.47;;;;;;;43.41;19.27;99384.09;5091509;28;20032;-58
2022/07/23 09:30:13;;;;;;;11.13;7.70;;;;;;;42.21;20.22;99391.69;5089352;28;20065;-59
2022/07/23 09:32:39;;;;;;;8.90;8.07;;;;;;;42.10;20.25;99370.84;5089467;28;20055;-59
2022/07/23 09:35:06;;;;;;;7.90;7.20;;;;;;;43.73;19.09;99381.09;5090255;28;20063;-57
2022/07/23 09:37:32;;;;;;;8.10;7.30;;;;;;;44.81;17.96;99387.88;5106200;28;20043;-58
2022/07/23 09:40:10;;;;;;;6.40;5.90;;;;;;;45.68;17.32;99388.91;5088818;28;20039;-58
2022/07/23 09:42:36;;;;;;;7.10;6.50;;;;;;;46.40;17.12;99390.59;5088584;28;20051;-57
2022/07/23 09:45:02;;;;;;;8.20;7.50;;;;;;;46.05;16.54;99391.00;5088944;28;20043;-59
2022/07/23 09:47:32;;;;;;;7.32;6.63;;;;;;;46.47;16.90;99388.31;5091142;28;20177;-58
2022/07/23 09:50:08;;;;;;;7.82;7.20;;;;;;;47.17;16.29;99386.50;5089075;28;20515;-59
2022/07/23 09:52:35;;;;;;;;;;;;;;;47.79;16.02;99381.59;5088920;28;20055;-58
2022/07/23 09:55:04;;;;;;;7.35;6.60;;;;;;;48.20;15.73;99380.84;5087900;28;19926;-57
2022/07/23 09:57:31;;;;;;;7.05;6.45;;;;;;;48.30;15.55;99388.91;5089894;28;20135;-58
2022/07/23 10:00:00;;;;;;;8.10;7.30;;;;;;;48.37;15.36;99364.47;5089802;28;20035;-58
2022/07/23 10:02:27;;;;;;;7.32;6.70;;;;;;;48.67;15.11;99379.56;5089079;28;20495;-59
2022/07/23 10:05:12;;;;;;;7.78;7.18;;;;;;;49.09;14.78;99387.47;5088440;28;20040;-58
2022/07/23 10:07:58;;;;;;;8.30;7.70;;;;;;;49.48;14.29;99380.41;5089721;28;20070;-58
2022/07/23 10:10:40;;;;;;;8.77;8.07;;;;;;;49.39;14.10;99329.78;5087662;28;20063;-58
2022/07/23 10:16:04;;;;;;;6.35;5.72;;;;;;;48.33;14.89;99369.78;5074115;28;20582;-59
2022/07/23 10:18:31;;;;;;;9.80;6.93;;;;;;;46.15;16.49;99357.88;5077115;28;20150;-59
2022/07/23 10:20:56;;;;;;;;;;;;;;;45.93;16.60;99353.75;5090082;28;20043;-57
2022/07/23 10:23:25;;;;;;;9.87;7.47;;;;;;;45.85;16.93;99361.81;5089785;28;19935;-57
2022/07/23 10:26:04;;;;;;;8.27;7.47;;;;;;;47.08;16.03;99348.94;5089547;28;20431;-57
2022/07/23 10:29:01;;;;;;;8.15;7.55;;;;;;;48.10;14.81;99356.22;5088405;28;20074;-60
2022/07/23 10:31:34;;;;;;;11.05;8.18;;;;;;;48.62;14.62;99361.19;5088105;28;20486;-59
2022/07/23 10:34:22;;;;;;;7.57;7.00;;;;;;;48.12;14.79;99357.53;5087285;28;20039;-58
2022/07/23 10:36:58;;;;;;;7.05;6.55;;;;;;;48.14;15.05;99348.97;5089502;28;20032;-56
2022/07/23 10:39:34;;;;;;;7.97;7.25;;;;;;;48.54;14.83;99347.28;5088373;28;20166;-58
2022/07/23 10:42:17;;;;;;;7.68;7.18;;;;;;;48.94;14.52;99337.28;5090146;28;20036;-59
2022/07/23 10:44:45;;;;;;;7.72;7.03;;;;;;;49.26;14.39;99333.47;5087194;28;20044;-57
2022/07/23 10:49:47;;;;;;;6.07;5.57;;;;;;;45.80;16.44;99320.66;5087730;28;20040;-57
2022/07/23 10:52:13;;;;;;;8.70;8.00;;;;;;;45.08;17.04;99323.22;5089081;28;20077;-58
2022/07/23 10:54:43;;;;;;;9.05;6.10;;;;;;;46.27;16.58;99319.81;5088439;28;20047;-58
2022/07/23 10:57:11;;;;;;;7.88;7.28;;;;;;;47.45;15.61;99320.50;5071396;28;20036;-58
2022/07/23 11:02:34;;;;;;;9.35;8.32;;;;;;;48.57;14.91;99321.84;5086264;28;20040;-57
2022/07/23 11:05:05;;;;;;;8.48;7.78;;;;;;;48.47;15.01;99317.38;5088454;28;20039;-57
2022/07/23 11:07:30;;;;;;;6.78;6.18;;;;;;;47.02;15.33;99317.06;5088180;28;20032;-57
2022/07/23 11:09:56;;;;;;;7.07;6.07;;;;;;;44.72;17.25;99308.91;5086750;28;20129;-57
2022/07/23 11:12:22;;;;;;;6.70;5.65;;;;;;;43.15;18.75;99305.81;5089502;28;20040;-57
2022/07/23 11:14:57;;;;;;;8.07;6.60;;;;;;;41.93;19.60;99298.38;5088808;28;20047;-57
2022/07/23 11:17:24;;;;;;;5.97;5.45;;;;;;;41.68;20.07;99294.38;5080876;28;20609;-59
2022/07/23 11:20:09;;;;;;;;;;;;;;;41.52;20.25;99295.38;5085992;28;20048;-58
2022/07/23 11:22:58;;;;;;;5.90;4.90;;;;;;;39.94;21.57;99294.03;5092963;28;19923;-57
2022/07/23 11:25:29;;;;;;;5.40;4.90;;;;;;;40.52;21.38;99290.63;5084054;28;20113;-57
2022/07/23 11:28:07;;;;;;;6.63;6.13;;;;;;;41.59;20.74;99281.50;5091817;28;20039;-58
2022/07/23 11:30:33;;;;;;;7.28;6.63;;;;;;;43.27;19.04;99300.06;5092509;28;20080;-58
2022/07/23 11:33:08;;;;;;;6.43;5.90;;;;;;;44.38;17.85;99297.06;5092073;28;20074;-58
2022/07/23 11:35:38;;;;;;;6.45;5.95;;;;;;;45.23;17.42;99302.22;5093720;28;20106;-58
2022/07/23 11:38:07;;;;;;;5.35;4.85;;;;;;;45.74;16.72;99302.56;5092382;28;20135;-58
2022/07/23 11:40:33;;;;;;;6.20;5.60;;;;;;;44.42;17.95;99294.56;5092344;28;20419;-58
2022/07/23 11:43:01;;;;;;;8.65;7.75;;;;;;;44.75;17.74;99293.81;5108179;28;20579;-57
2022/07/23 11:45:38;;;;;;;6.53;6.03;;;;;;;45.48;17.23;99299.28;5092676;28;20512;-58